Time;durP1;ratioP1;P1;durP2;ratioP2;P2;SDS_P1;SDS_P2;PMS_P1;PMS_P2;Temp;Humidity;BMP_temperature;BMP_pressure;BME280_temperature;BME280_humidity;BME280_pressure;Samples;Min_cycle;Max_cycle;Signal;HPM_P1;HPM_P2
2022/07/01 00:02:00;;;;;;;152.32;135.98;;;22.00;99.90;;;;;;4992888;28;20225;-53
2022/07/01 00:04:27;;;;;;;155.82;137.32;;;22.20;99.90;;;;;;4993546;28;20768;-53
2022/07/01 00:06:53;;;;;;;197.82;151.02;;;22.30;99.90;;;;;;4984558;28;20231;-53
2022/07/01 00:09:19;;;;;;;184.80;150.93;;;22.10;99.90;;;;;;4987599;28;20201;-53
2022/07/01 00:11:44;;;;;;;224.25;163.60;;;21.90;99.90;;;;;;4988811;28;20219;-53
2022/07/01 00:14:10;;;;;;;187.38;146.85;;;21.90;99.90;;;;;;4989155;28;20232;-53
2022/07/01 00:16:36;;;;;;;181.93;144.90;;;21.80;99.90;;;;;;4990747;28;20222;-53
2022/07/01 00:19:03;;;;;;;167.98;141.68;;;21.90;99.90;;;;;;4993576;28;20231;-53
2022/07/01 00:21:28;;;;;;;141.25;126.22;;;21.80;99.90;;;;;;4988977;28;20225;-53
2022/07/01 00:23:54;;;;;;;172.82;137.43;;;21.80;99.90;;;;;;4989142;28;21988;-53
2022/07/01 00:26:19;;;;;;;197.95;147.00;;;21.60;99.90;;;;;;4992456;28;20217;-53
2022/07/01 00:28:45;;;;;;;168.98;141.02;;;21.60;99.90;;;;;;4989575;28;20213;-53
2022/07/01 00:31:10;;;;;;;187.88;141.98;;;21.50;99.90;;;;;;4992956;28;20213;-53
2022/07/01 00:33:36;;;;;;;140.32;124.93;;;21.50;99.90;;;;;;4991057;28;20210;-53
2022/07/01 00:36:01;;;;;;;188.10;142.18;;;21.50;99.90;;;;;;4986681;28;20200;-53
2022/07/01 00:38:27;;;;;;;229.98;154.27;;;21.40;99.90;;;;;;4990303;28;20212;-53
2022/07/01 00:40:54;;;;;;;143.55;125.72;;;21.40;99.90;;;;;;4992038;28;20845;-53
2022/07/01 00:43:22;;;;;;;222.95;156.55;;;21.50;99.90;;;;;;4986222;28;24561;-53
2022/07/01 00:45:48;;;;;;;157.85;135.23;;;21.40;99.90;;;;;;4993843;28;20693;-53
2022/07/01 00:48:14;;;;;;;187.07;143.57;;;21.40;99.90;;;;;;4986706;28;20272;-53
2022/07/01 00:50:40;;;;;;;205.65;149.00;;;21.40;99.90;;;;;;4985906;28;20276;-53
2022/07/01 00:53:06;;;;;;;193.30;141.23;;;21.50;99.90;;;;;;4981812;28;20209;-53
2022/07/01 00:55:31;;;;;;;243.18;156.60;;;21.40;99.90;;;;;;4980898;28;20618;-53
2022/07/01 00:57:58;;;;;;;214.98;147.63;;;21.40;99.90;;;;;;4988420;28;20217;-53
2022/07/01 01:00:24;;;;;;;250.48;160.70;;;21.40;99.90;;;;;;4988568;28;20538;-53
2022/07/01 01:02:50;;;;;;;174.60;135.50;;;21.30;99.90;;;;;;4996226;28;20185;-53
2022/07/01 01:05:17;;;;;;;202.98;143.43;;;21.30;99.90;;;;;;4990361;28;20250;-53
2022/07/01 01:07:43;;;;;;;175.93;135.85;;;21.30;99.90;;;;;;4980424;28;20775;-53
2022/07/01 01:10:09;;;;;;;170.85;134.82;;;21.30;99.90;;;;;;4986833;28;20292;-53
2022/07/01 01:12:36;;;;;;;224.07;153.15;;;21.40;99.90;;;;;;4983312;28;20613;-53
2022/07/01 01:15:02;;;;;;;155.23;128.95;;;21.20;99.90;;;;;;4987737;28;20189;-53
2022/07/01 01:17:27;;;;;;;143.80;124.90;;;21.20;99.90;;;;;;4990963;28;20201;-53
2022/07/01 01:19:53;;;;;;;214.25;147.68;;;21.20;99.90;;;;;;4992046;28;20228;-53
2022/07/01 01:22:19;;;;;;;224.95;147.18;;;21.20;99.90;;;;;;4993546;28;20355;-53
2022/07/01 01:24:46;;;;;;;170.25;131.43;;;21.20;99.90;;;;;;4989491;28;20289;-53
2022/07/01 01:27:12;;;;;;;139.43;123.80;;;21.20;99.90;;;;;;4989511;28;20793;-52
2022/07/01 01:29:38;;;;;;;149.48;125.45;;;21.30;99.90;;;;;;4991113;28;20271;-53
2022/07/01 01:32:05;;;;;;;160.40;129.73;;;21.20;99.90;;;;;;4991202;28;20290;-53
2022/07/01 01:34:38;;;;;;;205.93;142.65;;;21.30;99.90;;;;;;4983887;28;20304;-53
2022/07/01 01:37:06;;;;;;;182.00;134.25;;;21.30;99.90;;;;;;4986075;28;20267;-53
2022/07/01 01:39:31;;;;;;;159.57;126.43;;;21.10;99.90;;;;;;4986668;28;20692;-53
2022/07/01 01:41:57;;;;;;;178.98;135.75;;;21.10;99.90;;;;;;4984468;28;20307;-53
2022/07/01 01:44:22;;;;;;;134.38;119.90;;;21.10;99.90;;;;;;4990732;28;20216;-53
2022/07/01 01:46:48;;;;;;;160.68;130.18;;;20.90;99.90;;;;;;4988034;28;20218;-53
2022/07/01 01:49:14;;;;;;;141.50;122.32;;;21.00;99.90;;;;;;4989006;28;20217;-53
2022/07/01 01:51:39;;;;;;;196.10;140.00;;;20.90;99.90;;;;;;4984916;28;20220;-53
2022/07/01 01:54:05;;;;;;;215.57;143.20;;;20.90;99.90;;;;;;4987546;28;20577;-53
2022/07/01 01:56:31;;;;;;;125.88;112.57;;;21.00;99.90;;;;;;4989798;28;20200;-53
2022/07/01 01:58:57;;;;;;;124.78;111.55;;;20.90;99.90;;;;;;4991533;28;20998;-53
2022/07/01 02:01:22;;;;;;;127.38;114.10;;;20.80;99.90;;;;;;4989812;28;20212;-53
2022/07/01 02:03:50;;;;;;;161.70;128.85;;;21.30;99.90;;;;;;4997599;28;20218;-53
2022/07/01 02:06:17;;;;;;;156.05;125.93;;;20.60;99.90;;;;;;4994954;28;20564;-53
2022/07/01 02:08:43;;;;;;;194.65;136.00;;;20.60;99.90;;;;;;4984815;28;20684;-53
2022/07/01 02:11:09;;;;;;;174.43;127.70;;;20.60;99.90;;;;;;4993993;28;20221;-53
2022/07/01 02:13:36;;;;;;;161.23;122.50;;;20.60;99.90;;;;;;4989149;28;20296;-53
2022/07/01 02:16:02;;;;;;;153.95;123.40;;;20.60;99.90;;;;;;4991928;28;20240;-53
2022/07/01 02:18:28;;;;;;;120.97;108.70;;;20.60;99.90;;;;;;4993919;28;20229;-53
2022/07/01 02:20:54;;;;;;;206.30;142.68;;;20.70;99.90;;;;;;4992554;28;20703;-53
2022/07/01 02:23:19;;;;;;;178.93;129.05;;;20.60;99.90;;;;;;4990078;28;20221;-53
2022/07/01 02:25:46;;;;;;;206.20;138.15;;;20.60;99.90;;;;;;4990239;28;20330;-53
2022/07/01 02:28:11;;;;;;;141.02;117.55;;;20.50;99.90;;;;;;4992714;28;20371;-53
2022/07/01 02:30:37;;;;;;;132.93;118.18;;;20.40;99.90;;;;;;4991523;28;20304;-53
2022/07/01 02:33:05;;;;;;;185.00;140.38;;;20.50;99.90;;;;;;4986913;28;20268;-53
2022/07/01 02:35:34;;;;;;;199.50;143.25;;;20.50;99.90;;;;;;4988344;28;20277;-53
2022/07/01 02:38:00;;;;;;;188.48;136.18;;;20.50;99.90;;;;;;4985686;28;21112;-53
2022/07/01 02:40:26;;;;;;;120.57;109.15;;;20.50;99.90;;;;;;4991369;28;20267;-53
2022/07/01 02:42:51;;;;;;;120.47;109.05;;;20.40;99.90;;;;;;4995919;28;20209;-53
2022/07/01 02:45:17;;;;;;;221.73;147.43;;;;;;;;;;4989410;28;20192;-53
2022/07/01 02:47:44;;;;;;;124.78;113.85;;;20.40;99.90;;;;;;4997065;28;20561;-53
2022/07/01 02:50:11;;;;;;;164.85;130.38;;;20.50;99.90;;;;;;4983857;28;20209;-53
2022/07/01 02:52:38;;;;;;;194.30;138.93;;;20.50;99.90;;;;;;4992469;28;20308;-53
2022/07/01 02:55:06;;;;;;;140.32;123.20;;;20.40;99.90;;;;;;4996194;28;20224;-53
2022/07/01 02:57:32;;;;;;;149.30;123.32;;;20.30;99.90;;;;;;4988338;28;20446;-53
2022/07/01 02:59:57;;;;;;;112.88;102.82;;;20.30;99.90;;;;;;4987125;28;20676;-53
2022/07/01 03:02:23;;;;;;;231.13;158.70;;;20.40;99.90;;;;;;4983731;28;20224;-53
2022/07/01 03:04:50;;;;;;;251.85;166.50;;;20.50;99.90;;;;;;4984472;28;20270;-53
2022/07/01 03:07:16;;;;;;;189.65;131.02;;;20.50;99.90;;;;;;4991487;28;20220;-53
2022/07/01 03:09:43;;;;;;;207.85;143.32;;;20.50;99.90;;;;;;4990993;28;20233;-53
2022/07/01 03:12:25;;;;;;;176.65;127.00;;;20.50;99.90;;;;;;4983001;28;20264;-53
2022/07/01 03:14:56;;;;;;;179.82;130.57;;;20.40;99.90;;;;;;4983996;28;20197;-53
2022/07/01 03:17:22;;;;;;;256.58;154.38;;;20.40;99.90;;;;;;4988862;28;20231;-53
2022/07/01 03:19:48;;;;;;;201.13;133.52;;;20.50;99.90;;;;;;4988916;28;20574;-53
2022/07/01 03:22:14;;;;;;;192.70;127.72;;;20.40;99.90;;;;;;4985317;28;21740;-53
2022/07/01 03:24:40;;;;;;;132.35;118.70;;;20.50;99.90;;;;;;5012499;28;20231;-53
2022/07/01 03:27:05;;;;;;;168.57;130.55;;;20.40;99.90;;;;;;4987131;28;20201;-53
2022/07/01 03:29:31;;;;;;;174.15;123.95;;;20.50;99.90;;;;;;4986112;28;20193;-53
2022/07/01 03:31:56;;;;;;;144.93;121.55;;;20.50;99.90;;;;;;5006789;28;20272;-53
2022/07/01 03:34:22;;;;;;;121.68;109.28;;;20.50;99.90;;;;;;4990358;28;20677;-53
2022/07/01 03:36:48;;;;;;;171.40;127.60;;;20.60;99.90;;;;;;4987054;28;20239;-53
2022/07/01 03:39:13;;;;;;;154.63;121.30;;;20.60;99.90;;;;;;4987496;28;20256;-53
2022/07/01 03:41:39;;;;;;;210.02;142.90;;;20.60;99.90;;;;;;4986591;28;20606;-53
2022/07/01 03:44:05;;;;;;;166.38;127.13;;;20.60;99.90;;;;;;4987804;28;20216;-53
2022/07/01 03:46:31;;;;;;;183.73;133.73;;;20.50;99.90;;;;;;4985772;28;20550;-53
2022/07/01 03:49:00;;;;;;;156.82;126.50;;;19.80;99.90;;;;;;4990962;28;20214;-53
2022/07/01 03:51:25;;;;;;;170.15;127.22;;;20.00;99.90;;;;;;4993077;28;20227;-53
2022/07/01 03:56:35;;;;;;;147.80;127.05;;;20.80;99.90;;;;;;4992503;28;20227;-53
2022/07/01 03:59:01;;;;;;;228.10;153.52;;;20.80;99.90;;;;;;4988170;28;20225;-53
2022/07/01 04:01:26;;;;;;;181.25;138.57;;;20.80;99.90;;;;;;4992377;28;20593;-53
2022/07/01 04:03:52;;;;;;;200.65;152.52;;;20.80;99.90;;;;;;4988448;28;20569;-53
2022/07/01 04:06:18;;;;;;;185.48;145.82;;;20.90;99.90;;;;;;4991998;28;20244;-53
2022/07/01 04:08:44;;;;;;;159.43;137.85;;;20.90;99.90;;;;;;4990436;28;20185;-53
2022/07/01 04:11:09;;;;;;;211.88;156.13;;;20.80;99.90;;;;;;4989412;28;20224;-53
2022/07/01 04:13:39;;;;;;;148.85;132.98;;;20.80;99.90;;;;;;4991955;28;20213;-53
2022/07/01 04:16:04;;;;;;;192.45;147.90;;;20.80;99.90;;;;;;4984898;28;20252;-53
2022/07/01 04:18:30;;;;;;;148.55;133.23;;;20.80;99.90;;;;;;4985753;28;20228;-53
2022/07/01 04:23:41;;;;;;;193.02;148.63;;;21.00;99.90;;;;;;4987521;28;20227;-53
2022/07/01 04:26:06;;;;;;;228.80;163.10;;;22.10;99.90;;;;;;4983168;28;20221;-53
2022/07/01 04:28:32;;;;;;;196.85;149.88;;;21.00;99.90;;;;;;4993115;28;20763;-53
2022/07/01 04:30:57;;;;;;;188.45;152.38;;;21.10;99.90;;;;;;4988079;28;20212;-52
2022/07/01 04:33:23;;;;;;;222.02;162.50;;;21.10;99.90;;;;;;4987423;28;20224;-52
2022/07/01 04:35:48;;;;;;;183.15;151.60;;;21.30;99.90;;;;;;4986172;28;20325;-52
2022/07/01 04:38:14;;;;;;;167.93;147.13;;;21.30;99.90;;;;;;4991296;28;20312;-53
2022/07/01 04:40:39;;;;;;;198.00;155.40;;;21.20;99.90;;;;;;4984231;28;20292;-52
2022/07/01 04:43:05;;;;;;;236.75;176.90;;;21.30;99.90;;;;;;4985916;28;20216;-53
2022/07/01 04:45:30;;;;;;;250.32;179.40;;;20.80;99.90;;;;;;4977254;28;20212;-53
2022/07/01 04:47:56;;;;;;;226.57;176.38;;;21.50;99.90;;;;;;4984335;28;20238;-52
2022/07/01 04:50:22;;;;;;;195.32;161.23;;;21.60;99.90;;;;;;4986179;28;20216;-52
2022/07/01 04:52:47;;;;;;;165.52;147.48;;;21.70;99.90;;;;;;4993283;28;20779;-53
2022/07/01 04:55:13;;;;;;;209.02;162.60;;;21.70;99.90;;;;;;4979013;28;20217;-53
2022/07/01 04:57:38;;;;;;;189.32;162.15;;;21.90;99.90;;;;;;4988740;28;20240;-53
2022/07/01 05:00:04;;;;;;;191.23;158.40;;;21.90;99.90;;;;;;4987529;28;21297;-53
2022/07/01 05:02:30;;;;;;;184.95;158.63;;;22.00;99.90;;;;;;4992314;28;20180;-53
2022/07/01 05:04:55;;;;;;;246.25;182.27;;;22.00;99.90;;;;;;4986763;28;20235;-52
2022/07/01 05:07:31;;;;;;;284.48;199.13;;;22.00;99.90;;;;;;4979985;28;20267;-54
2022/07/01 05:09:56;;;;;;;236.13;185.60;;;22.10;99.90;;;;;;4996698;28;20620;-53
2022/07/01 05:12:22;;;;;;;181.60;159.25;;;22.20;99.90;;;;;;4986915;28;20220;-52
2022/07/01 05:14:49;;;;;;;224.07;184.77;;;22.20;99.90;;;;;;4984254;28;20197;-52
2022/07/01 05:17:14;;;;;;;203.90;170.60;;;22.40;99.90;;;;;;4990520;28;20225;-53
2022/07/01 05:22:24;;;;;;;207.50;176.73;;;22.50;99.90;;;;;;4995256;28;20590;-54
2022/07/01 05:24:49;;;;;;;233.77;187.13;;;22.60;99.90;;;;;;4992917;28;20201;-55
2022/07/01 05:27:15;;;;;;;229.02;192.23;;;22.60;99.90;;;;;;4989723;28;20208;-54
2022/07/01 05:29:40;;;;;;;223.73;182.75;;;22.70;99.90;;;;;;4976019;28;20219;-54
2022/07/01 05:32:06;;;;;;;242.07;182.65;;;22.80;99.90;;;;;;4986174;28;20720;-54
2022/07/01 05:34:32;;;;;;;215.40;187.23;;;22.90;99.90;;;;;;4986131;28;20384;-54
2022/07/01 05:36:57;;;;;;;243.18;197.30;;;22.90;99.90;;;;;;4990225;28;20223;-54
2022/07/01 05:39:23;;;;;;;249.88;199.90;;;23.00;99.90;;;;;;4995819;28;20225;-54
2022/07/01 05:41:49;;;;;;;198.60;174.15;;;23.00;99.90;;;;;;4999068;28;20243;-54
2022/07/01 05:44:14;;;;;;;245.25;196.52;;;23.10;99.90;;;;;;4993981;28;20213;-54
2022/07/01 05:46:40;;;;;;;272.40;206.60;;;23.30;99.90;;;;;;4995367;28;20275;-54
2022/07/01 05:49:05;;;;;;;239.38;198.55;;;23.30;99.90;;;;;;4991494;28;20217;-54
2022/07/01 05:51:31;;;;;;;260.30;208.57;;;23.30;99.90;;;;;;4995458;28;20209;-54
2022/07/01 05:53:57;;;;;;;252.48;203.40;;;23.40;99.90;;;;;;4995819;28;20203;-54
2022/07/01 05:56:24;;;;;;;281.90;215.23;;;23.60;99.90;;;;;;4989127;28;21244;-54
2022/07/01 05:58:49;;;;;;;278.75;220.95;;;23.60;99.90;;;;;;4997350;28;20272;-54
2022/07/01 06:01:15;;;;;;;299.27;232.50;;;23.70;99.90;;;;;;4994550;28;20256;-54
2022/07/01 06:03:40;;;;;;;239.77;210.13;;;23.70;99.90;;;;;;4987311;28;20209;-54
2022/07/01 06:06:06;;;;;;;264.85;217.77;;;23.90;99.60;;;;;;4993139;28;21043;-54
2022/07/01 06:08:33;;;;;;;233.10;207.18;;;23.90;98.70;;;;;;4995092;28;20200;-54
2022/07/01 06:10:59;;;;;;;249.07;211.57;;;24.00;95.70;;;;;;4997547;28;20214;-54
2022/07/01 06:13:24;;;;;;;271.85;218.80;;;24.00;90.70;;;;;;5001011;28;20263;-54
2022/07/01 06:15:50;;;;;;;259.27;202.45;;;24.10;85.00;;;;;;4994933;28;20214;-55
2022/07/01 06:18:16;;;;;;;298.80;227.50;;;24.10;88.00;;;;;;4986185;28;20194;-54
2022/07/01 06:20:42;;;;;;;296.65;231.95;;;24.10;87.70;;;;;;4991770;28;20177;-53
2022/07/01 06:23:07;;;;;;;261.17;217.65;;;24.30;80.10;;;;;;4997456;28;20217;-52
2022/07/01 06:25:33;;;;;;;313.35;240.13;;;24.50;38.10;;;;;;4986439;28;20592;-54
2022/07/01 06:27:58;;;;;;;359.70;257.70;;;24.50;38.90;;;;;;4981246;28;20209;-53
2022/07/01 06:30:24;;;;;;;320.27;227.88;;;24.70;11.20;;;;;;4980423;28;20217;-53
2022/07/01 06:32:49;;;;;;;317.30;233.45;;;24.70;11.50;;;;;;4984885;28;20185;-53
2022/07/01 06:35:15;;;;;;;301.60;225.70;;;24.80;14.00;;;;;;4993079;28;20213;-53
2022/07/01 06:37:40;;;;;;;314.38;231.80;;;24.90;1.00;;;;;;5009052;28;20204;-54
2022/07/01 06:40:07;;;;;;;241.75;204.75;;;24.90;1.00;;;;;;4988072;28;20260;-52
2022/07/01 06:42:33;;;;;;;250.23;209.15;;;25.20;1.00;;;;;;5013035;28;20973;-53
2022/07/01 06:44:59;;;;;;;235.48;207.98;;;25.20;1.00;;;;;;5013796;28;20247;-53
2022/07/01 06:47:25;;;;;;;254.77;219.23;;;25.30;1.00;;;;;;5013211;28;20708;-51
2022/07/01 06:49:50;;;;;;;254.60;219.02;;;25.40;1.00;;;;;;5010695;28;20209;-53
2022/07/01 06:52:16;;;;;;;240.38;210.93;;;25.50;1.00;;;;;;5012943;28;20209;-52
2022/07/01 06:54:41;;;;;;;272.75;219.05;;;25.60;1.00;;;;;;5013178;28;20635;-52
2022/07/01 06:57:07;;;;;;;272.02;228.25;;;25.60;1.00;;;;;;5012851;28;20234;-52
2022/07/01 06:59:33;;;;;;;285.27;241.18;;;25.80;1.00;;;;;;5013158;28;20203;-52
2022/07/01 07:01:59;;;;;;;252.77;219.20;;;25.80;1.00;;;;;;5013133;28;20212;-52
2022/07/01 07:04:25;;;;;;;245.10;214.02;;;25.90;1.00;;;;;;5012943;28;20209;-52
2022/07/01 07:06:50;;;;;;;373.48;279.67;;;26.00;99.90;;;;;;5001322;28;20228;-56
2022/07/01 07:09:17;;;;;;;317.88;253.40;;;26.00;99.90;;;;;;4987347;28;20333;-56
2022/07/01 07:11:42;;;;;;;316.63;256.25;;;26.20;99.90;;;;;;4994638;28;20193;-56
2022/07/01 07:14:08;;;;;;;303.73;242.30;;;26.10;81.40;;;;;;4986760;28;20275;-56
2022/07/01 07:16:33;;;;;;;326.92;256.23;;;26.20;99.90;;;;;;4984527;28;20219;-55
2022/07/01 07:18:59;;;;;;;306.23;251.98;;;26.20;99.90;;;;;;4993490;28;20221;-56
2022/07/01 07:21:24;;;;;;;321.17;266.15;;;26.20;99.90;;;;;;4988156;28;20213;-56
2022/07/01 07:23:50;;;;;;;352.05;282.52;;;26.20;99.90;;;;;;4982104;28;20284;-56
2022/07/01 07:26:15;;;;;;;298.83;256.88;;;26.40;99.90;;;;;;4993199;28;20220;-56
2022/07/01 07:28:41;;;;;;;295.20;260.30;;;26.50;99.90;;;;;;4995804;28;20213;-55
2022/07/01 07:31:06;;;;;;;291.63;259.48;;;26.50;99.90;;;;;;4987760;28;20225;-56
2022/07/01 07:33:32;;;;;;;267.35;238.43;;;26.60;99.90;;;;;;4985427;28;20223;-56
2022/07/01 07:35:58;;;;;;;288.20;231.32;;;;;;;;;;4985535;28;20208;-56
2022/07/01 07:38:23;;;;;;;290.63;235.57;;;26.70;49.00;;;;;;4985528;28;20225;-56
2022/07/01 07:40:49;;;;;;;276.58;235.27;;;26.70;1.00;;;;;;4986946;28;20247;-56
2022/07/01 07:43:15;;;;;;;368.15;269.85;;;27.60;1.00;;;;;;4982120;28;20295;-56
2022/07/01 07:45:40;;;;;;;372.30;270.85;;;26.80;1.00;;;;;;4984267;28;20231;-56
2022/07/01 07:48:06;;;;;;;408.42;292.95;;;26.80;83.00;;;;;;4971503;28;20845;-56
2022/07/01 07:50:32;;;;;;;435.67;306.65;;;26.80;1.00;;;;;;4990732;28;20770;-56
2022/07/01 07:52:58;;;;;;;385.65;286.55;;;26.90;1.00;;;;;;4975088;28;20220;-56
2022/07/01 07:55:23;;;;;;;286.10;254.32;;;27.00;99.90;;;;;;4990819;28;20224;-56
2022/07/01 07:57:49;;;;;;;306.58;257.65;;;27.00;1.00;;;;;;4983716;28;21190;-56
2022/07/01 08:00:15;;;;;;;392.40;288.52;;;;;;;;;;4980440;28;20213;-56
2022/07/01 08:02:42;;;;;;;404.15;291.55;;;27.20;1.00;;;;;;4982625;28;20196;-56
2022/07/01 08:05:09;;;;;;;340.50;268.55;;;27.40;1.00;;;;;;4991161;28;20224;-56
2022/07/01 08:07:39;;;;;;;291.35;260.02;;;27.40;1.00;;;;;;4989797;28;20707;-56
2022/07/01 08:10:08;;;;;;;298.35;266.45;;;27.50;99.90;;;;;;4993384;28;20851;-56
2022/07/01 08:12:34;;;;;;;283.17;254.90;;;27.40;1.00;;;;;;4991686;28;20221;-57
2022/07/01 08:14:59;;;;;;;290.92;260.63;;;27.30;67.50;;;;;;4995809;28;20220;-56
2022/07/01 08:17:26;;;;;;;313.50;279.02;;;27.40;99.90;;;;;;4990094;28;20217;-56
2022/07/01 08:19:51;;;;;;;330.38;281.30;;;27.40;99.90;;;;;;4988929;28;20257;-56
2022/07/01 08:22:17;;;;;;;326.65;280.00;;;27.50;99.90;;;;;;4993393;28;20213;-56
2022/07/01 08:24:42;;;;;;;319.52;274.67;;;27.60;1.00;;;;;;4992477;28;20217;-56
2022/07/01 08:27:08;;;;;;;316.80;281.60;;;27.60;1.00;;;;;;4994355;28;20570;-56
2022/07/01 08:29:34;;;;;;;354.08;291.33;;;27.00;1.00;;;;;;4994542;28;20194;-56
2022/07/01 08:31:59;;;;;;;294.00;261.90;;;27.80;1.00;;;;;;4994611;28;20232;-56
2022/07/01 08:34:25;;;;;;;293.67;262.25;;;27.90;1.00;;;;;;4998247;28;20212;-55
2022/07/01 08:36:50;;;;;;;315.02;277.45;;;28.00;1.00;;;;;;5007589;28;20601;-55
2022/07/01 08:39:16;;;;;;;321.92;288.65;;;28.00;1.00;;;;;;5008846;28;20573;-55
2022/07/01 08:41:42;;;;;;;328.70;292.90;;;28.10;1.00;;;;;;5001708;28;20185;-55
2022/07/01 08:44:08;;;;;;;307.63;274.92;;;28.10;1.00;;;;;;5008757;28;20652;-54
2022/07/01 08:46:34;;;;;;;334.98;293.20;;;28.20;1.00;;;;;;4994488;28;20216;-56
2022/07/01 08:49:00;;;;;;;322.33;287.15;;;28.20;1.00;;;;;;4989126;28;20788;-56
2022/07/01 08:51:26;;;;;;;329.77;293.45;;;28.30;99.90;;;;;;4995641;28;20216;-56
2022/07/01 08:53:51;;;;;;;340.65;297.98;;;28.40;1.00;;;;;;4991536;28;20272;-56
2022/07/01 08:59:01;;;;;;;352.85;307.05;;;28.50;1.00;;;;;;4992438;28;20594;-56
2022/07/01 09:01:27;;;;;;;366.23;313.27;;;28.50;1.00;;;;;;4990923;28;20212;-56
2022/07/01 09:03:54;;;;;;;332.20;295.50;;;29.70;63.00;;;;;;4997591;28;20264;-56
2022/07/01 09:06:21;;;;;;;386.58;322.95;;;28.90;1.00;;;;;;4989956;28;20293;-56
2022/07/01 09:08:47;;;;;;;406.08;328.83;;;28.80;48.70;;;;;;4988436;28;20209;-56
2022/07/01 09:11:24;;;;;;;393.30;322.90;;;28.80;99.90;;;;;;4993141;28;20218;-56
2022/07/01 09:14:10;;;;;;;351.17;306.70;;;28.90;1.00;;;;;;4991076;28;20213;-55
2022/07/01 09:16:46;;;;;;;347.48;304.08;;;29.00;99.90;;;;;;4991731;28;20282;-56
2022/07/01 09:19:13;;;;;;;366.98;313.70;;;29.00;99.90;;;;;;4994309;28;20224;-55
2022/07/01 09:21:39;;;;;;;374.27;316.05;;;29.10;99.90;;;;;;4991444;28;20236;-55
2022/07/01 09:24:23;;;;;;;344.52;304.45;;;29.20;95.70;;;;;;4994023;28;20315;-55
2022/07/01 09:26:57;;;;;;;318.60;284.05;;;29.30;1.00;;;;;;5007810;28;20205;-53
2022/07/01 09:29:44;;;;;;;355.73;297.67;;;29.30;1.00;;;;;;5009520;28;20240;-53
2022/07/01 09:32:11;;;;;;;349.08;288.05;;;29.40;1.00;;;;;;5009692;28;20216;-53
2022/07/01 09:34:45;;;;;;;335.80;298.27;;;29.50;1.00;;;;;;5009783;28;20303;-53
2022/07/01 09:37:12;;;;;;;347.13;284.45;;;29.70;1.00;;;;;;5009486;28;20231;-53
2022/07/01 09:39:49;;;;;;;329.58;283.85;;;29.70;1.00;;;;;;5009974;28;20311;-52
2022/07/01 09:42:17;;;;;;;353.13;283.13;;;29.80;1.00;;;;;;5010191;28;20165;-52
2022/07/01 09:44:57;;;;;;;349.73;285.27;;;29.80;1.00;;;;;;5008995;28;20516;-52
2022/07/01 09:47:23;;;;;;;322.70;283.77;;;29.90;99.90;;;;;;5010127;28;20221;-52
2022/07/01 09:49:50;;;;;;;356.40;290.27;;;30.20;99.90;;;;;;5010019;28;20216;-52
2022/07/01 09:52:17;;;;;;;352.92;290.23;;;30.20;99.90;;;;;;5009997;28;20259;-52
2022/07/01 09:54:44;;;;;;;337.77;282.40;;;30.30;83.10;;;;;;5010137;28;20555;-53
2022/07/01 09:57:10;;;;;;;372.40;307.95;;;32.10;1.00;;;;;;5009589;28;20484;-52
2022/07/01 09:59:35;;;;;;;346.15;295.33;;;30.50;1.00;;;;;;5010143;28;20208;-52
2022/07/01 10:02:02;;;;;;;358.77;314.13;;;30.50;1.00;;;;;;5009932;28;20216;-53
2022/07/01 10:04:32;;;;;;;344.80;306.92;;;30.30;1.00;;;;;;5010234;28;20299;-53
2022/07/01 10:07:15;;;;;;;354.88;316.52;;;30.30;1.00;;;;;;5009888;28;20585;-53
2022/07/01 10:10:03;;;;;;;341.90;306.20;;;30.20;1.00;;;;;;5010119;28;20243;-53
2022/07/01 10:12:46;;;;;;;354.52;315.30;;;30.30;1.00;;;;;;5009976;28;20209;-53
2022/07/01 10:15:17;;;;;;;352.77;314.98;;;30.50;1.00;;;;;;5009962;28;20189;-52
2022/07/01 10:17:46;;;;;;;365.50;325.58;;;30.30;1.00;;;;;;5010044;28;20162;-53
2022/07/01 10:20:14;;;;;;;354.65;316.08;;;30.50;1.00;;;;;;5009745;28;20236;-53
2022/07/01 10:22:41;;;;;;;360.65;318.17;;;30.40;1.00;;;;;;5009683;28;20213;-53
2022/07/01 10:25:29;;;;;;;348.65;311.35;;;30.50;1.00;;;;;;5012013;28;20704;-53
2022/07/01 10:28:19;;;;;;;362.13;322.92;;;30.50;1.00;;;;;;5013446;28;20213;-52
2022/07/01 10:30:52;;;;;;;346.98;308.95;;;30.60;1.00;;;;;;5006054;28;20240;-52
2022/07/01 10:33:37;;;;;;;371.00;330.30;;;30.90;1.00;;;;;;5013852;28;20176;-52
2022/07/01 10:36:12;;;;;;;368.80;326.88;;;30.90;1.00;;;;;;5013152;28;20344;-51
2022/07/01 10:39:16;;;;;;;364.42;324.52;;;30.90;1.00;;;;;;5013690;28;20532;-52
2022/07/01 10:41:58;;;;;;;342.75;306.60;;;30.90;1.00;;;;;;5013488;28;20189;-53
2022/07/01 10:44:27;;;;;;;361.17;323.33;;;30.80;1.00;;;;;;5012936;28;20209;-53
2022/07/01 10:47:03;;;;;;;347.95;311.05;;;30.70;1.00;;;;;;5012126;28;20687;-52
2022/07/01 10:49:41;;;;;;;347.55;309.92;;;30.70;1.00;;;;;;5012041;28;20243;-52
2022/07/01 10:52:09;;;;;;;347.25;308.40;;;30.60;1.00;;;;;;5012873;28;20355;-53
2022/07/01 10:54:40;;;;;;;349.88;311.67;;;30.30;1.00;;;;;;5011318;28;20219;-52
2022/07/01 10:57:15;;;;;;;330.77;295.92;;;30.10;1.00;;;;;;5012945;28;20704;-52
2022/07/01 10:59:42;;;;;;;353.15;315.23;;;30.20;1.00;;;;;;5011849;28;20350;-52
2022/07/01 11:02:34;;;;;;;326.67;291.30;;;30.00;1.00;;;;;;5012343;28;20212;-52
2022/07/01 11:05:02;;;;;;;300.85;269.75;;;29.70;99.90;;;;;;5004221;28;20347;-52
2022/07/01 11:07:30;;;;;;;282.48;254.82;;;28.00;99.90;;;;;;5011304;28;20212;-52
2022/07/01 11:09:57;;;;;;;263.63;237.20;;;26.60;1.00;;;;;;5010056;28;20212;-52
2022/07/01 11:12:23;;;;;;;240.23;216.05;;;25.20;1.00;;;;;;5011796;28;20215;-51
2022/07/01 11:14:49;;;;;;;210.10;191.15;;;24.40;1.00;;;;;;5012881;28;20495;-52
2022/07/01 11:17:16;;;;;;;218.93;196.20;;;23.80;53.90;;;;;;5012030;28;20218;-50
2022/07/01 11:19:52;;;;;;;188.10;168.57;;;23.30;99.90;;;;;;5011823;28;20693;-51
2022/07/01 11:22:23;;;;;;;182.70;163.57;;;23.00;99.90;;;;;;5011215;28;20213;-51
2022/07/01 11:24:56;;;;;;;165.02;149.50;;;22.80;99.90;;;;;;5011511;28;20247;-50
2022/07/01 11:27:22;;;;;;;166.07;150.10;;;22.60;99.90;;;;;;5012435;28;20213;-51
2022/07/01 11:29:55;;;;;;;170.38;153.00;;;22.50;99.90;;;;;;5012504;28;20601;-51
2022/07/01 11:32:29;;;;;;;171.63;153.48;;;22.30;99.90;;;;;;5012199;28;20228;-50
2022/07/01 11:34:55;;;;;;;149.23;134.85;;;22.10;99.90;;;;;;5012358;28;20224;-50
2022/07/01 11:40:10;;;;;;;151.07;137.00;;;22.40;99.90;;;;;;4992664;28;20280;-50
2022/07/01 11:42:36;;;;;;;156.07;138.18;;;22.60;99.90;;;;;;4992767;28;20217;-50
2022/07/01 11:45:03;;;;;;;159.43;140.50;;;22.70;99.90;;;;;;4992702;28;20265;-50
2022/07/01 11:47:29;;;;;;;167.82;149.77;;;22.90;83.40;;;;;;4992320;28;20190;-50
2022/07/01 11:49:55;;;;;;;152.95;137.25;;;23.00;44.00;;;;;;4992584;28;20213;-50
2022/07/01 11:52:22;;;;;;;174.30;155.60;;;23.50;26.50;;;;;;4992582;28;20209;-50
2022/07/01 11:54:49;;;;;;;173.65;155.80;;;23.10;1.00;;;;;;4991986;28;20221;-50
2022/07/01 11:57:21;;;;;;;176.80;158.63;;;23.50;1.00;;;;;;4992340;28;20225;-50
2022/07/01 11:59:48;;;;;;;155.48;139.60;;;;;;;;;;4993077;28;20277;-50
2022/07/01 12:02:16;;;;;;;187.55;168.13;;;;;;;;;;4992100;28;20299;-50
2022/07/01 12:04:42;;;;;;;177.73;160.27;;;;;;;;;;4992307;28;20385;-50
2022/07/01 12:07:10;;;;;;;183.82;164.73;;;;;;;;;;4992158;28;20256;-49
2022/07/01 12:09:36;;;;;;;176.50;157.30;;;;;;;;;;4992060;28;20279;-50
2022/07/01 12:12:03;;;;;;;176.38;159.00;;;;;;;;;;4991998;28;20177;-50
2022/07/01 12:14:30;;;;;;;180.63;161.43;;;;;;;;;;4991752;28;20253;-50
2022/07/01 12:17:01;;;;;;;181.05;162.40;;;;;;;;;;4991436;28;20257;-49
2022/07/01 12:19:48;;;;;;;166.35;149.68;;;;;;;;;;4991537;28;20744;-49
2022/07/01 12:22:15;;;;;;;166.68;149.52;;;;;;;;;;4992140;28;20589;-50
2022/07/01 12:24:42;;;;;;;176.55;158.23;;;;;;;;;;4991977;28;20220;-50
2022/07/01 12:27:08;;;;;;;170.75;152.30;;;;;;;;;;4991548;28;20193;-50
2022/07/01 12:29:40;;;;;;;153.85;137.55;;;;;;;;;;4991817;28;20193;-50
2022/07/01 12:32:07;;;;;;;182.48;159.32;;;;;;;;;;4991550;28;20299;-50